Lebanon, CT (06249)

7:52 AM EDT on July 26, 2016 (GMT -0400)
Middle School - IT Pod | | Change Station
Active Advisory: Special Statement Active Notice: Record Report

Elev 0 ft 41.63 °N, 72.24 °W | Updated 8 seconds ago

Clear
Clear
72.1 °F
Feels Like 70 °F
N
6.8
Wind Variable Wind from WSW
Gusts 11.0 mph

Today
High -- | Low -- °F
--% Chance of Precip.
Yesterday
High -- | Low -- °F
Precip. -- in
Pressure 29.89 in
Visibility 10.0 miles
Clouds Clear
Heat Index 70 °F
Dew Point 68 °F
Humidity 87%
Rainfall 0.00 in
Snow Depth Not available.
5:37 AM 8:12 PM
Waning Gibbous, 55% visible
METAR KSNC 261135Z AUTO 00000KT 10SM CLR 22/21 A2989 RMK AO2
Pressure 29.89 in
Visibility 10.0 miles
Clouds Clear
Heat Index 70 °F
Dew Point 68 °F
Humidity 87%
Rainfall 0.00 in
Snow Depth Not available.
5:37 AM 8:12 PM
Waning Gibbous, 55% visible
METAR KSNC 261135Z AUTO 00000KT 10SM CLR 22/21 A2989 RMK AO2

10-Day Weather Forecast

Almanac

Astronomy

Jul. 26, 2016 Rise Set
Actual Time
Civil Twilight
Nautical Twilight
Astronomical Twilight
Moon
Length of Visible Light
Length of Day
Tomorrow will be .
, % of the Moon is Illuminated

Today's Extremes

State Highs State Lows

Community

WunderPhotos

Upload Photos

1,927,577 photos uploaded!

WunderBlog® & News

Nearby

Air Quality

  Air Quality AQ Index Pollutant
Not available.

Snow Depth

Station Depth Elevation

Earthquake Activity

City Distance Mag. Time & Date
Minimum magnitude displayed is 2.5.

Coastal Water Temperatures

Place Temperature

Stations

Nearby Weather Stations

Station Location Temp. Windchill Dew Point Humidity Wind Precip. Elev Updated Type
                   

Watches & Warnings

Special Statement
Issued: 7:46 AM EDT Jul. 26, 2016 – National Weather Service

... Elevated threat for brush fire spread this afternoon...

Hot temperatures and westerly wind gusts of 20 to 25 mph are
expected this afternoon. Relative humidity values will drop to the
lower 30s percent range during this time. While the area received
some rainfall yesterday... much of it was less than one quarter of
an inch. Input from fire officials indicates the forecast weather
conditions and recent abnormally dry weather will result in
elevated fire weather concerns for today.



746 am EDT Tue Jul 26 2016

... Elevated threat for brush fire spread this afternoon...

Hot temperatures and westerly wind gusts of 20 to 25 mph are
expected this afternoon. Relative humidity values will drop to the
lower 30s percent range during this time. While the area received
some rainfall yesterday... much of it was less than one quarter of
an inch. Input from fire officials indicates the forecast weather
conditions and recent abnormally dry weather will result in
elevated fire weather concerns for today.